Time;durP1;ratioP1;P1;durP2;ratioP2;P2;SDS_P1;SDS_P2;PMS_P1;PMS_P2;Temp;Humidity;BMP_temperature;BMP_pressure;BME280_temperature;BME280_humidity;BME280_pressure;Samples;Min_cycle;Max_cycle;Signal;HPM_P1;HPM_P2
2021/10/01 00:00:51;;;;;;;9.27;3.60;;;;;;;7.70;100.00;98951.84;5066943;28;20218;-62
2021/10/01 00:03:17;;;;;;;6.53;3.60;;;;;;;7.68;100.00;98949.31;5065391;28;20676;-62
2021/10/01 00:05:45;;;;;;;4.93;3.83;;;;;;;7.68;100.00;98948.44;5062945;28;20222;-62
2021/10/01 00:08:12;;;;;;;6.83;3.40;;;;;;;7.67;100.00;98955.50;5061769;28;20212;-62
2021/10/01 00:10:38;;;;;;;4.83;3.10;;;;;;;7.63;100.00;98950.44;5066756;28;20212;-62
2021/10/01 00:13:05;;;;;;;4.27;3.23;;;;;;;7.62;100.00;98948.72;5065693;28;20207;-62
2021/10/01 00:15:32;;;;;;;4.70;3.60;;;;;;;7.61;100.00;98947.03;5063115;28;20223;-63
2021/10/01 00:17:59;;;;;;;4.53;3.57;;;;;;;7.59;100.00;98941.00;5061763;28;20661;-62
2021/10/01 00:20:25;;;;;;;4.53;3.20;;;;;;;7.57;100.00;98946.31;5066675;28;20630;-62
2021/10/01 00:22:53;;;;;;;4.47;3.30;;;;;;;7.59;100.00;98939.19;5066082;28;20216;-62
2021/10/01 00:25:20;;;;;;;4.33;3.40;;;;;;;7.55;100.00;98934.16;5061723;28;20212;-62
2021/10/01 00:27:46;;;;;;;4.70;3.30;;;;;;;7.58;100.00;98929.59;5063487;28;20216;-61
2021/10/01 00:30:13;;;;;;;5.23;3.30;;;;;;;7.53;100.00;98928.09;5066765;28;20220;-62
2021/10/01 00:32:39;;;;;;;7.03;3.90;;;;;;;7.52;100.00;98926.38;5065904;28;20220;-62
2021/10/01 00:35:07;;;;;;;6.27;3.77;;;;;;;7.51;100.00;98927.31;5060965;28;20225;-62
2021/10/01 00:37:33;;;;;;;4.90;3.80;;;;;;;7.54;100.00;98924.56;5060301;28;20561;-61
2021/10/01 00:40:01;;;;;;;6.17;4.00;;;;;;;7.51;100.00;98919.41;5065418;28;20225;-62
2021/10/01 00:42:28;;;;;;;3.70;3.40;;;;;;;7.54;100.00;98914.03;5064133;28;20216;-62
2021/10/01 00:44:55;;;;;;;7.30;3.80;;;;;;;7.52;100.00;98915.84;5059579;28;20220;-62
2021/10/01 00:47:21;;;;;;;5.30;4.03;;;;;;;7.48;100.00;98917.75;5040162;28;20251;-62
2021/10/01 00:49:48;;;;;;;4.43;3.83;;;;;;;7.43;100.00;98918.91;5057669;28;20558;-61
2021/10/01 00:52:18;;;;;;;4.53;3.43;;;;;;;7.41;100.00;98920.75;5068846;28;20714;-62
2021/10/01 00:54:45;;;;;;;4.73;3.77;;;;;;;7.38;100.00;98917.41;5068456;28;20682;-62
2021/10/01 00:57:13;;;;;;;5.67;3.63;;;;;;;7.32;100.00;98905.38;5055145;28;20211;-62
2021/10/01 00:59:39;;;;;;;5.27;3.80;;;;;;;7.27;100.00;98909.97;5064955;28;20211;-62
2021/10/01 01:02:06;;;;;;;5.77;3.90;;;;;;;7.26;100.00;98908.25;5070408;28;20223;-62
2021/10/01 01:04:33;;;;;;;4.27;3.77;;;;;;;7.24;100.00;98903.06;5069577;28;20234;-62
2021/10/01 01:07:11;;;;;;;3.87;3.53;;;;;;;7.23;100.00;98892.63;5071426;28;20226;-62
2021/10/01 01:09:48;;;;;;;5.43;4.00;;;;;;;7.21;100.00;98893.63;5069773;28;20297;-62
2021/10/01 01:12:28;;;;;;;4.53;3.47;;;;;;;7.17;100.00;98887.66;5068414;28;20221;-62
2021/10/01 01:15:03;;;;;;;3.70;3.27;;;;;;;7.16;100.00;98883.31;5071158;28;20226;-63
2021/10/01 01:17:36;;;;;;;4.53;3.23;;;;;;;7.13;100.00;98875.56;5071108;28;20238;-62
2021/10/01 01:20:16;;;;;;;4.70;3.50;;;;;;;7.11;100.00;98872.16;5068266;28;20223;-62
2021/10/01 01:22:56;;;;;;;4.90;3.17;;;;;;;7.13;100.00;98875.56;5071195;28;20218;-62
2021/10/01 01:25:55;;;;;;;5.50;3.37;;;;;;;7.09;100.00;98870.50;5071163;28;20254;-63
2021/10/01 01:28:40;;;;;;;5.27;3.60;;;;;;;7.10;100.00;98867.81;5041272;28;20264;-62
2021/10/01 01:31:15;;;;;;;3.27;2.80;;;;;;;7.10;100.00;98870.44;5070930;28;20230;-62
2021/10/01 01:33:45;;;;;;;3.43;2.80;;;;;;;7.07;100.00;98862.69;5068649;28;20213;-62
2021/10/01 01:36:14;;;;;;;4.27;3.33;;;;;;;7.09;100.00;98867.88;5042501;28;20219;-62
2021/10/01 01:38:45;;;;;;;3.37;3.00;;;;;;;7.06;100.00;98860.97;5070595;28;20266;-62
2021/10/01 01:41:12;;;;;;;4.70;3.33;;;;;;;7.07;100.00;98865.31;5070881;28;20213;-62
2021/10/01 01:43:41;;;;;;;4.13;3.70;;;;;;;7.04;100.00;98862.81;5068137;28;20212;-62
2021/10/01 01:46:08;;;;;;;6.93;3.33;;;;;;;7.04;100.00;98865.44;5070723;28;20231;-62
2021/10/01 01:48:36;;;;;;;5.57;3.37;;;;;;;7.06;100.00;98858.34;5070742;28;20220;-62
2021/10/01 01:51:06;;;;;;;7.03;3.90;;;;;;;7.03;100.00;98858.47;5070327;28;20717;-62
2021/10/01 01:53:34;;;;;;;4.17;3.37;;;;;;;7.03;100.00;98845.31;5068916;28;20238;-62
2021/10/01 01:56:01;;;;;;;5.13;4.23;;;;;;;6.99;100.00;98846.41;5064397;28;20295;-62
2021/10/01 01:58:29;;;;;;;4.97;4.20;;;;;;;6.99;100.00;98843.78;5062372;28;20614;-62
2021/10/01 02:00:56;;;;;;;5.90;3.97;;;;;;;6.94;100.00;98843.09;5057256;28;20580;-62
2021/10/01 02:03:25;;;;;;;7.83;4.57;;;;;;;6.92;100.00;98842.34;5067999;28;20229;-62
2021/10/01 02:05:52;;;;;;;5.77;4.57;;;;;;;6.90;100.00;98833.63;5070188;28;20225;-62
2021/10/01 02:08:21;;;;;;;6.43;4.23;;;;;;;6.89;100.00;98829.31;5070142;28;20219;-62
2021/10/01 02:10:48;;;;;;;5.23;4.20;;;;;;;6.95;100.00;98831.66;5069524;28;20587;-62
2021/10/01 02:13:16;;;;;;;6.83;4.60;;;;;;;6.95;100.00;98829.03;5067756;28;20217;-62
2021/10/01 02:15:45;;;;;;;5.27;3.83;;;;;;;6.93;100.00;98830.91;5070535;28;20211;-62
2021/10/01 02:18:12;;;;;;;5.80;4.40;;;;;;;6.93;100.00;98825.63;5069975;28;20738;-62
2021/10/01 02:20:41;;;;;;;8.13;4.97;;;;;;;6.92;100.00;98812.56;5069801;28;20230;-62
2021/10/01 02:23:08;;;;;;;4.67;4.00;;;;;;;6.90;100.00;98823.13;5068175;28;20585;-62
2021/10/01 02:28:31;;;;;;;4.90;3.93;;;;;;;6.84;100.00;98810.25;5068373;28;20222;-62
2021/10/01 02:31:00;;;;;;;6.57;4.67;;;;;;;6.83;100.00;98807.72;5066894;28;20278;-62
2021/10/01 02:33:33;;;;;;;7.40;4.20;;;;;;;6.81;100.00;98799.03;5070091;28;20278;-63
2021/10/01 02:35:59;;;;;;;5.53;4.07;;;;;;;6.74;100.00;98798.47;5070347;28;20223;-62
2021/10/01 02:38:26;;;;;;;4.93;3.80;;;;;;;6.73;100.00;98796.72;5069052;28;20231;-62
2021/10/01 02:40:54;;;;;;;6.73;4.20;;;;;;;6.72;100.00;98799.44;5068574;28;20224;-62
2021/10/01 02:43:20;;;;;;;6.73;4.27;;;;;;;6.68;100.00;98801.34;5070211;28;20213;-62
2021/10/01 02:45:47;;;;;;;7.23;4.23;;;;;;;6.60;100.00;98794.72;5070017;28;20218;-62
2021/10/01 02:48:13;;;;;;;5.47;3.67;;;;;;;6.52;100.00;98795.03;5069604;28;20218;-62
2021/10/01 02:50:42;;;;;;;4.10;3.70;;;;;;;6.50;100.00;98791.63;5068084;28;20211;-62
2021/10/01 02:53:17;;;;;;;5.13;3.97;;;;;;;6.46;100.00;98781.31;5068555;28;20249;-62
2021/10/01 02:55:48;;;;;;;5.80;4.00;;;;;;;6.41;100.00;98788.56;5063262;28;20206;-62
2021/10/01 02:58:20;;;;;;;5.17;3.97;;;;;;;6.34;100.00;98787.94;5052455;28;20239;-62
2021/10/01 03:00:48;;;;;;;6.77;4.53;;;;;;;6.33;100.00;98782.75;5042179;28;20243;-62
2021/10/01 03:03:21;;;;;;;4.53;3.90;;;;;;;6.29;100.00;98779.41;5069871;28;20218;-62
2021/10/01 03:05:50;;;;;;;6.17;4.63;;;;;;;6.32;100.00;98775.78;5069859;28;20221;-62
2021/10/01 03:08:18;;;;;;;4.80;4.30;;;;;;;6.31;100.00;98782.84;5066881;28;20230;-62
2021/10/01 03:10:47;;;;;;;5.40;4.37;;;;;;;6.24;100.00;98776.09;5069438;28;20211;-62
2021/10/01 03:13:17;;;;;;;5.60;4.40;;;;;;;6.22;100.00;98772.69;5069933;28;20574;-62
2021/10/01 03:15:45;;;;;;;7.50;4.67;;;;;;;6.26;100.00;98774.28;5059647;28;20224;-62
2021/10/01 03:18:12;;;;;;;6.13;4.23;;;;;;;6.31;100.00;98771.47;5067202;28;20237;-62
2021/10/01 03:20:38;;;;;;;6.67;4.23;;;;;;;6.30;100.00;98778.47;5068541;28;20216;-62
2021/10/01 03:23:06;;;;;;;6.67;4.43;;;;;;;6.33;100.00;98781.00;5073351;28;20218;-62
2021/10/01 03:25:33;;;;;;;5.10;4.07;;;;;;;6.32;100.00;98774.03;5073107;28;20222;-62
2021/10/01 03:28:00;;;;;;;6.87;4.50;;;;;;;6.28;100.00;98776.84;5070968;28;20220;-62
2021/10/01 03:30:28;;;;;;;5.33;3.90;;;;;;;6.30;100.00;98767.97;5073152;28;20215;-62
2021/10/01 03:32:55;;;;;;;7.80;4.73;;;;;;;6.26;100.00;98774.28;5073017;28;20220;-62
2021/10/01 03:35:21;;;;;;;6.50;4.03;;;;;;;6.26;100.00;98763.78;5073304;28;20210;-62
2021/10/01 03:37:48;;;;;;;7.07;4.73;;;;;;;6.30;100.00;98767.13;5069321;28;20235;-62
2021/10/01 03:40:17;;;;;;;6.30;4.50;;;;;;;6.29;100.00;98768.06;5072824;28;20254;-62
2021/10/01 03:42:43;;;;;;;6.90;4.20;;;;;;;6.28;100.00;98772.44;5072862;28;20676;-62
2021/10/01 03:45:11;;;;;;;5.50;4.40;;;;;;;6.28;100.00;98767.19;5071156;28;20691;-62
2021/10/01 03:47:39;;;;;;;5.17;4.53;;;;;;;6.27;100.00;98760.25;5068913;28;20218;-62
2021/10/01 03:50:07;;;;;;;7.40;4.43;;;;;;;6.31;100.00;98756.59;5072649;28;20215;-62
2021/10/01 03:52:34;;;;;;;5.63;4.20;;;;;;;6.30;100.00;98760.09;5072718;28;20706;-62
2021/10/01 03:55:03;;;;;;;6.20;4.27;;;;;;;6.28;100.00;98761.94;5072251;28;20223;-62
2021/10/01 03:57:29;;;;;;;6.27;4.33;;;;;;;6.29;100.00;98757.56;5069320;28;20219;-62
2021/10/01 03:59:55;;;;;;;5.70;4.70;;;;;;;6.32;100.00;98757.41;5072448;28;20250;-62
2021/10/01 04:02:22;;;;;;;6.90;4.40;;;;;;;6.29;100.00;98757.56;5072550;28;20218;-62
2021/10/01 04:04:50;;;;;;;6.53;4.80;;;;;;;6.32;100.00;98758.28;5072341;28;20230;-62
2021/10/01 04:07:16;;;;;;;6.17;5.17;;;;;;;6.32;100.00;98752.16;5068484;28;20226;-62
2021/10/01 04:09:43;;;;;;;5.50;4.50;;;;;;;6.29;100.00;98744.44;5072622;28;20217;-62
2021/10/01 04:12:09;;;;;;;6.77;5.17;;;;;;;6.24;100.00;98743.78;5070895;28;20583;-62
2021/10/01 04:14:36;;;;;;;6.83;5.03;;;;;;;6.19;100.00;98746.59;5072504;28;20608;-62
2021/10/01 04:17:02;;;;;;;6.30;4.57;;;;;;;6.16;100.00;98741.47;5069651;28;20670;-62
2021/10/01 04:19:29;;;;;;;7.53;4.80;;;;;;;6.15;100.00;98733.66;5072401;28;20238;-62
2021/10/01 04:21:57;;;;;;;6.83;4.50;;;;;;;6.17;100.00;98737.91;5072366;28;20233;-62
2021/10/01 04:24:23;;;;;;;5.73;4.87;;;;;;;6.18;100.00;98733.53;5072121;28;20210;-62
2021/10/01 04:26:50;;;;;;;6.43;5.07;;;;;;;6.14;100.00;98732.81;5069193;28;20699;-62
2021/10/01 04:29:16;;;;;;;6.57;4.67;;;;;;;6.14;100.00;98738.06;5072365;28;20213;-62
2021/10/01 04:31:43;;;;;;;7.77;5.23;;;;;;;6.12;100.00;98729.38;5063928;28;20221;-62
2021/10/01 04:34:09;;;;;;;5.90;4.83;;;;;;;6.07;100.00;98728.75;5071698;28;20582;-62
2021/10/01 04:36:36;;;;;;;5.90;4.47;;;;;;;6.11;100.00;98727.69;5068858;28;20209;-62
2021/10/01 04:39:04;;;;;;;5.97;4.43;;;;;;;6.12;100.00;98737.25;5070644;28;20250;-62
2021/10/01 04:41:31;;;;;;;7.03;4.60;;;;;;;6.10;100.00;98731.22;5072001;28;20578;-62
2021/10/01 04:43:57;;;;;;;5.67;4.43;;;;;;;6.04;100.00;98730.66;5071721;28;20602;-62
2021/10/01 04:46:24;;;;;;;6.53;4.60;;;;;;;6.09;100.00;98734.78;5069768;28;20217;-62
2021/10/01 04:48:51;;;;;;;6.37;4.37;;;;;;;6.05;100.00;98738.44;5071219;28;20294;-62
2021/10/01 04:51:17;;;;;;;5.43;4.60;;;;;;;6.02;100.00;98738.56;5071845;28;20217;-62
2021/10/01 04:53:44;;;;;;;5.30;4.30;;;;;;;5.96;100.00;98738.81;5071889;28;20246;-62
2021/10/01 04:56:12;;;;;;;5.60;4.40;;;;;;;5.96;100.00;98735.34;5061190;28;20214;-62
2021/10/01 04:58:39;;;;;;;6.23;4.73;;;;;;;5.97;100.00;98734.41;5057210;28;20234;-62
2021/10/01 05:01:05;;;;;;;6.20;4.43;;;;;;;5.95;100.00;98736.25;5071293;28;20218;-62
2021/10/01 05:03:32;;;;;;;6.50;4.97;;;;;;;5.90;100.00;98732.97;5069893;28;20215;-62
2021/10/01 05:05:58;;;;;;;5.47;4.63;;;;;;;5.85;100.00;98727.91;5069977;28;20220;-62
2021/10/01 05:08:25;;;;;;;6.10;4.50;;;;;;;5.85;100.00;98733.16;5068693;28;20222;-62
2021/10/01 05:10:51;;;;;;;7.37;4.63;;;;;;;5.73;100.00;98736.25;5071370;28;20218;-62
2021/10/01 05:13:19;;;;;;;4.43;4.03;;;;;;;5.69;100.00;98739.06;5071221;28;20208;-62
2021/10/01 05:15:46;;;;;;;5.27;4.17;;;;;;;5.68;100.00;98739.97;5070144;28;20693;-62
2021/10/01 05:18:15;;;;;;;5.20;3.80;;;;;;;5.68;100.00;98738.19;5069400;28;20222;-62
2021/10/01 05:20:41;;;;;;;6.23;4.00;;;;;;;5.68;100.00;98738.19;5070905;28;20715;-62
2021/10/01 05:23:08;;;;;;;4.70;3.97;;;;;;;5.68;100.00;98742.59;5071124;28;20211;-62
2021/10/01 05:25:35;;;;;;;9.97;4.23;;;;;;;5.68;100.00;98729.50;5070617;28;20244;-62
2021/10/01 05:28:01;;;;;;;5.30;3.90;;;;;;;5.70;100.00;98730.28;5069205;28;20218;-62
2021/10/01 05:30:29;;;;;;;6.93;4.20;;;;;;;5.70;100.00;98736.38;5069143;28;20211;-62
2021/10/01 05:32:56;;;;;;;5.50;4.20;;;;;;;5.69;100.00;98734.66;5070908;28;20225;-62
2021/10/01 05:35:22;;;;;;;5.40;4.27;;;;;;;5.69;100.00;98739.06;5070535;28;20579;-62
2021/10/01 05:37:49;;;;;;;4.60;4.00;;;;;;;5.71;100.00;98732.84;5068627;28;20215;-62
2021/10/01 05:40:15;;;;;;;5.20;4.40;;;;;;;5.73;100.00;98736.25;5070851;28;20257;-62
2021/10/01 05:42:42;;;;;;;6.53;4.27;;;;;;;5.80;100.00;98732.47;5070619;28;20219;-62
2021/10/01 05:45:10;;;;;;;6.67;4.80;;;;;;;5.79;100.00;98730.75;5064514;28;20217;-62
2021/10/01 05:47:38;;;;;;;6.13;5.03;;;;;;;5.85;100.00;98735.78;5066791;28;20313;-62
2021/10/01 05:50:11;;;;;;;6.17;4.33;;;;;;;5.92;100.00;98734.59;5070631;28;20225;-62
2021/10/01 05:52:50;;;;;;;6.90;4.83;;;;;;;5.94;100.00;98734.56;5070702;28;20238;-63
2021/10/01 05:55:16;;;;;;;7.03;5.10;;;;;;;5.98;100.00;98734.34;5066082;28;20214;-62
2021/10/01 05:57:44;;;;;;;7.60;4.27;;;;;;;6.01;100.00;98731.63;5056853;28;20217;-62
2021/10/01 06:00:11;;;;;;;6.40;4.93;;;;;;;6.05;100.00;98733.19;5070225;28;20238;-62
2021/10/01 06:02:41;;;;;;;7.83;4.30;;;;;;;6.12;100.00;98734.63;5070508;28;20217;-62
2021/10/01 06:05:09;;;;;;;5.30;4.80;;;;;;;6.19;100.00;98736.09;5067864;28;20265;-62
2021/10/01 06:07:35;;;;;;;7.70;4.70;;;;;;;6.26;100.00;98732.28;5043673;28;20223;-62
2021/10/01 06:10:02;;;;;;;4.80;4.10;;;;;;;6.36;100.00;98730.97;5070228;28;20215;-62
2021/10/01 06:12:28;;;;;;;5.87;4.47;;;;;;;6.44;100.00;98723.63;5070565;28;20214;-62
2021/10/01 06:14:55;;;;;;;7.83;4.23;;;;;;;6.50;100.00;98730.38;5067960;28;20218;-62
2021/10/01 06:17:22;;;;;;;5.87;3.80;;;;;;;6.59;100.00;98724.75;5069669;28;20222;-62
2021/10/01 06:19:50;;;;;;;5.67;4.27;;;;;;;6.66;100.00;98726.16;5069934;28;20713;-62
2021/10/01 06:22:16;;;;;;;7.37;4.30;;;;;;;6.79;100.00;98724.69;5068665;28;20230;-62
2021/10/01 06:24:43;;;;;;;5.50;3.83;;;;;;;6.82;100.00;98725.41;5068336;28;20219;-62
2021/10/01 06:27:11;;;;;;;7.87;3.80;;;;;;;6.90;100.00;98731.16;5069286;28;20228;-62
2021/10/01 06:29:38;;;;;;;4.97;3.87;;;;;;;6.99;100.00;98716.75;5070318;28;20274;-62
2021/10/01 06:32:05;;;;;;;4.00;3.60;;;;;;;7.02;100.00;98721.91;5070283;28;20537;-62
2021/10/01 06:34:32;;;;;;;4.00;3.53;;;;;;;7.05;100.00;98719.97;5068206;28;20321;-62
2021/10/01 06:37:00;;;;;;;4.57;3.50;;;;;;;7.15;100.00;98725.66;5069171;28;20210;-62
2021/10/01 06:39:26;;;;;;;4.73;3.90;;;;;;;7.22;100.00;98721.81;5070073;28;20250;-62
2021/10/01 06:41:53;;;;;;;3.73;3.33;;;;;;;7.38;100.00;98717.56;5069869;28;20218;-62
2021/10/01 06:44:24;;;;;;;4.63;3.30;;;;;;;7.43;100.00;98721.66;5068463;28;20219;-62
2021/10/01 06:46:52;;;;;;;3.40;3.10;;;;;;;7.46;100.00;98716.25;5066888;28;20218;-62
2021/10/01 06:49:28;;;;;;;3.93;3.20;;;;;;;7.55;100.00;98715.81;5070105;28;20585;-62
2021/10/01 07:36:04;;;;;;;4.77;2.70;;;;;;;9.53;100.00;98700.06;5070124;28;20234;-63
2021/10/01 08:19:47;;;;;;;3.67;2.60;;;;;;;11.50;88.44;98686.28;5047415;28;20239;-62
2021/10/01 08:22:14;;;;;;;3.67;2.60;;;;;;;11.58;88.04;98689.28;5057588;28;20222;-62
2021/10/01 08:24:41;;;;;;;3.47;2.50;;;;;;;11.70;87.63;98689.38;5068113;28;20666;-62
2021/10/01 08:27:08;;;;;;;3.53;2.23;;;;;;;11.80;86.60;98687.81;5071245;28;20696;-62
2021/10/01 08:29:35;;;;;;;3.57;2.53;;;;;;;11.91;86.28;98684.44;5071620;28;20217;-62
2021/10/01 08:32:04;;;;;;;4.47;2.30;;;;;;;12.01;85.73;98682.91;5068408;28;20224;-62
2021/10/01 08:34:33;;;;;;;3.90;2.60;;;;;;;12.13;85.38;98684.75;5068151;28;20221;-62
2021/10/01 08:37:00;;;;;;;3.30;2.80;;;;;;;12.25;85.08;98681.25;5070427;28;20213;-62
2021/10/01 08:39:27;;;;;;;4.60;2.70;;;;;;;12.32;84.61;98677.25;5071133;28;20220;-62
2021/10/01 08:41:54;;;;;;;5.67;2.57;;;;;;;12.40;82.54;98670.47;5050403;28;20606;-62
2021/10/01 08:44:20;;;;;;;4.93;2.77;;;;;;;12.49;83.31;98675.16;5060196;28;20580;-61
2021/10/01 08:46:49;;;;;;;4.30;2.30;;;;;;;12.61;82.70;98666.38;5060305;28;20224;-62
2021/10/01 08:49:18;;;;;;;2.60;2.27;;;;;;;12.82;81.65;98667.53;5059426;28;20215;-61
2021/10/01 08:51:45;;;;;;;3.37;2.20;;;;;;;12.88;79.50;98668.88;5062208;28;20237;-61
2021/10/01 08:54:11;;;;;;;4.50;2.43;;;;;;;12.94;79.65;98665.81;5063149;28;20217;-62
2021/10/01 08:56:38;;;;;;;3.57;2.50;;;;;;;12.98;79.71;98662.03;5059187;28;20208;-61
2021/10/01 08:59:04;;;;;;;3.50;2.10;;;;;;;13.18;78.33;98650.84;5055127;28;20222;-63
2021/10/01 09:01:31;;;;;;;3.57;1.97;;;;;;;13.20;78.12;98643.63;5055582;28;20259;-62
2021/10/01 09:03:57;;;;;;;3.80;2.00;;;;;;;13.30;78.21;98640.19;5056713;28;20218;-62
2021/10/01 09:06:26;;;;;;;2.53;2.00;;;;;;;13.43;78.11;98642.81;5049492;28;20234;-62
2021/10/01 09:08:55;;;;;;;3.03;2.00;;;;;;;13.56;77.81;98640.97;5056827;28;20219;-62
2021/10/01 09:11:27;;;;;;;2.47;2.03;;;;;;;13.60;77.01;98640.63;5059877;28;20222;-63
2021/10/01 09:13:54;;;;;;;4.03;1.90;;;;;;;13.76;76.68;98637.69;5059990;28;20222;-62
2021/10/01 09:16:22;;;;;;;2.67;1.80;;;;;;;13.86;75.44;98631.56;5058126;28;20745;-62
2021/10/01 09:18:49;;;;;;;2.40;2.13;;;;;;;13.95;73.77;98627.38;5057909;28;20254;-63
2021/10/01 09:21:19;;;;;;;3.50;2.33;;;;;;;14.01;74.71;98624.28;5061256;28;20250;-63
2021/10/01 09:23:58;;;;;;;2.27;1.90;;;;;;;14.15;74.93;98619.63;5057832;28;20218;-63
2021/10/01 09:26:25;;;;;;;3.47;1.77;;;;;;;14.20;74.18;98613.97;5058449;28;20595;-63
2021/10/01 09:28:55;;;;;;;2.27;1.60;;;;;;;14.30;73.72;98604.34;5058537;28;20230;-63
2021/10/01 09:31:43;;;;;;;2.00;1.80;;;;;;;14.47;73.63;98606.53;5061566;28;20222;-63
2021/10/01 09:34:13;;;;;;;1.70;1.60;;;;;;;14.64;73.48;98609.59;5053676;28;20220;-62
2021/10/01 09:36:40;;;;;;;2.03;1.70;;;;;;;14.72;72.50;98595.69;5058330;28;20699;-63
2021/10/01 09:39:25;;;;;;;2.67;1.67;;;;;;;14.82;71.84;98589.53;5061274;28;20611;-63
2021/10/01 09:41:52;;;;;;;2.87;1.70;;;;;;;14.84;71.57;98592.06;5051544;28;20239;-63
2021/10/01 09:44:19;;;;;;;2.17;1.60;;;;;;;14.88;71.20;98586.38;5057868;28;20222;-63
2021/10/01 09:46:48;;;;;;;2.43;1.67;;;;;;;15.05;70.33;98587.69;5060381;28;20212;-62
2021/10/01 09:49:17;;;;;;;3.13;1.60;;;;;;;15.11;70.25;98584.53;5059727;28;20219;-63
2021/10/01 09:51:50;;;;;;;2.00;1.40;;;;;;;15.24;70.26;98585.25;5056292;28;20244;-63
2021/10/01 09:54:19;;;;;;;1.80;1.50;;;;;;;15.27;70.61;98571.69;5057731;28;20215;-63
2021/10/01 09:56:46;;;;;;;4.43;1.63;;;;;;;15.42;70.09;98573.13;5054997;28;20210;-63
2021/10/01 09:59:16;;;;;;;1.93;1.50;;;;;;;15.45;68.51;98570.22;5059158;28;20243;-63
2021/10/01 10:02:03;;;;;;;2.27;1.60;;;;;;;15.55;68.58;98555.16;5057995;28;20709;-63
2021/10/01 10:04:31;;;;;;;3.77;1.70;;;;;;;15.65;67.66;98556.94;5059992;28;20276;-63
2021/10/01 10:06:58;;;;;;;3.40;1.87;;;;;;;15.77;68.00;98544.44;5061332;28;20212;-63
2021/10/01 10:09:34;;;;;;;4.77;1.67;;;;;;;15.90;68.72;98553.94;5059690;28;20208;-63
2021/10/01 10:12:01;;;;;;;2.80;1.47;;;;;;;15.93;67.87;98544.81;5059519;28;20222;-63
2021/10/01 10:14:27;;;;;;;2.33;1.47;;;;;;;16.02;67.54;98539.53;5050864;28;20212;-63
2021/10/01 10:16:58;;;;;;;2.17;1.50;;;;;;;16.05;67.25;98539.31;5059914;28;20215;-63
2021/10/01 10:19:30;;;;;;;4.27;1.80;;;;;;;16.07;67.45;98541.84;5059397;28;20223;-63
2021/10/01 10:21:57;;;;;;;3.27;1.53;;;;;;;16.22;68.02;98530.72;5059693;28;20293;-63
2021/10/01 10:24:24;;;;;;;2.20;1.70;;;;;;;16.33;66.07;98523.47;5063111;28;20223;-63
2021/10/01 10:26:51;;;;;;;2.77;1.40;;;;;;;16.46;66.39;98518.78;5060653;28;20234;-63
2021/10/01 10:29:18;;;;;;;2.60;1.50;;;;;;;16.58;66.15;98517.72;5059384;28;20220;-63
2021/10/01 10:31:48;;;;;;;4.53;1.50;;;;;;;16.60;65.47;98515.78;5058897;28;20212;-63
2021/10/01 10:34:21;;;;;;;1.97;1.50;;;;;;;16.65;66.18;98510.88;5062847;28;20211;-63
2021/10/01 10:36:48;;;;;;;1.93;1.50;;;;;;;16.79;66.67;98515.00;5059304;28;20298;-63
2021/10/01 10:39:34;;;;;;;2.93;1.30;;;;;;;16.92;65.52;98516.47;5059029;28;20272;-63
2021/10/01 10:42:11;;;;;;;2.90;1.70;;;;;;;17.02;63.64;98516.50;5049518;28;20242;-63
2021/10/01 10:44:44;;;;;;;3.07;1.83;;;;;;;17.05;63.63;98519.72;5059725;28;20238;-63
2021/10/01 10:47:11;;;;;;;1.97;1.33;;;;;;;17.13;62.70;98503.84;5058894;28;20216;-63
2021/10/01 10:49:38;;;;;;;1.97;1.50;;;;;;;17.15;62.51;98506.41;5061080;28;20215;-63
2021/10/01 10:52:07;;;;;;;1.40;1.30;;;;;;;17.14;61.86;98508.22;5062440;28;20719;-63
2021/10/01 10:54:36;;;;;;;2.10;1.70;;;;;;;17.18;62.69;98500.78;5051066;28;20223;-63
2021/10/01 10:57:29;;;;;;;1.80;1.40;;;;;;;17.32;61.88;98498.53;5058345;28;20215;-64
2021/10/01 10:59:58;;;;;;;4.17;1.87;;;;;;;17.46;62.34;98495.50;5053417;28;20215;-64
2021/10/01 11:02:28;;;;;;;2.53;1.60;;;;;;;17.36;61.30;98494.63;5051162;28;20269;-64
2021/10/01 11:05:20;;;;;;;3.40;2.00;;;;;;;17.35;61.66;98495.59;5058917;28;20224;-62
2021/10/01 11:07:51;;;;;;;3.53;1.80;;;;;;;17.41;61.74;98487.06;5053590;28;20219;-62
2021/10/01 11:10:35;;;;;;;3.53;1.60;;;;;;;17.50;60.53;98488.06;5047572;28;20707;-63
2021/10/01 11:13:32;;;;;;;3.77;1.83;;;;;;;17.60;62.15;98481.72;5058965;28;20681;-64
2021/10/01 11:16:20;;;;;;;2.60;1.53;;;;;;;17.69;61.08;98475.50;5060290;28;20223;-64
2021/10/01 11:19:04;;;;;;;2.00;1.63;;;;;;;17.74;61.04;98478.59;5058673;28;20220;-62
2021/10/01 11:21:36;;;;;;;2.90;1.50;;;;;;;17.88;59.86;98475.50;5053076;28;20314;-62
2021/10/01 11:24:07;;;;;;;2.63;1.60;;;;;;;17.95;59.89;98471.28;5051667;28;20216;-63
2021/10/01 11:26:36;;;;;;;2.00;1.57;;;;;;;18.09;59.11;98461.94;5058339;28;20219;-62
2021/10/01 11:29:05;;;;;;;2.17;1.50;;;;;;;18.10;57.96;98448.41;5061164;28;20221;-62
2021/10/01 11:31:37;;;;;;;2.37;1.53;;;;;;;18.19;57.65;98452.06;5061624;28;20298;-63
2021/10/01 11:34:03;;;;;;;2.47;1.47;;;;;;;18.24;58.19;98450.63;5063079;28;20677;-62
2021/10/01 11:36:30;;;;;;;2.07;1.30;;;;;;;18.26;57.25;98451.34;5059048;28;20235;-62
2021/10/01 11:39:07;;;;;;;2.27;1.23;;;;;;;18.30;57.02;98436.66;5061453;28;20219;-63
2021/10/01 11:41:39;;;;;;;2.27;1.10;;;;;;;18.40;57.33;98434.84;5060167;28;20242;-63
2021/10/01 11:44:08;;;;;;;1.77;1.43;;;;;;;18.45;56.36;98432.56;5062136;28;20251;-63
2021/10/01 11:46:37;;;;;;;1.70;1.20;;;;;;;18.59;54.62;98429.38;5061379;28;20586;-63
2021/10/01 11:49:08;;;;;;;2.63;0.97;;;;;;;18.59;55.59;98434.75;5065972;28;20211;-62
2021/10/01 11:51:35;;;;;;;1.50;0.80;;;;;;;18.58;53.94;98417.00;5054903;28;20317;-63
2021/10/01 11:54:07;;;;;;;1.10;0.90;;;;;;;18.84;52.78;98417.97;5062171;28;20212;-63
2021/10/01 11:56:34;;;;;;;1.57;1.17;;;;;;;18.98;52.07;98411.25;5064124;28;20602;-63
2021/10/01 11:59:00;;;;;;;3.60;1.10;;;;;;;18.98;51.14;98406.75;5065167;28;20223;-62
2021/10/01 12:01:28;;;;;;;0.83;0.80;;;;;;;19.09;52.74;98398.47;5060219;28;20244;-63
2021/10/01 12:03:56;;;;;;;2.13;1.03;;;;;;;19.13;51.37;98394.50;5061713;28;20221;-61
2021/10/01 12:06:24;;;;;;;1.87;0.90;;;;;;;19.14;50.83;98390.84;5064137;28;20222;-62
2021/10/01 12:08:56;;;;;;;2.90;1.00;;;;;;;19.18;50.63;98386.84;5064646;28;20227;-62
2021/10/01 12:11:28;;;;;;;1.90;0.97;;;;;;;19.17;50.68;98379.81;5061564;28;20223;-62
2021/10/01 12:13:55;;;;;;;2.63;1.13;;;;;;;19.13;48.94;98386.47;5061310;28;20216;-61
2021/10/01 12:16:22;;;;;;;1.10;0.87;;;;;;;19.26;49.85;98376.25;5065241;28;20219;-62
2021/10/01 12:18:57;;;;;;;1.10;0.90;;;;;;;19.45;49.31;98365.34;5063922;28;20321;-62
2021/10/01 12:21:25;;;;;;;0.83;0.80;;;;;;;19.44;48.62;98366.34;5061571;28;20238;-62
2021/10/01 12:23:57;;;;;;;1.37;0.70;;;;;;;19.48;47.45;98356.16;5062101;28;20212;-61
2021/10/01 12:26:29;;;;;;;3.00;1.20;;;;;;;19.64;47.53;98354.41;5062566;28;20218;-62
2021/10/01 12:29:11;;;;;;;1.80;0.80;;;;;;;19.67;47.20;98354.13;5061561;28;20223;-61
2021/10/01 12:31:41;;;;;;;1.17;0.80;;;;;;;19.69;46.17;98353.97;5061287;28;20705;-61
2021/10/01 12:34:15;;;;;;;0.93;0.83;;;;;;;19.76;44.72;98353.16;5053417;28;20211;-61
2021/10/01 12:36:43;;;;;;;2.37;0.90;;;;;;;19.75;45.11;98351.50;5062185;28;20224;-62
2021/10/01 12:39:10;;;;;;;1.20;0.80;;;;;;;19.85;45.74;98352.22;5061045;28;20216;-61
2021/10/01 12:41:37;;;;;;;1.00;0.80;;;;;;;19.89;45.69;98348.25;5059489;28;20244;-62
2021/10/01 12:44:05;;;;;;;1.47;0.80;;;;;;;19.89;45.49;98353.63;5064833;28;20222;-62
2021/10/01 12:46:44;;;;;;;1.47;0.93;;;;;;;19.89;45.21;98350.94;5061672;28;20215;-63
2021/10/01 12:49:27;;;;;;;1.33;0.80;;;;;;;19.89;42.85;98342.03;5060893;28;20219;-61
2021/10/01 12:52:13;;;;;;;1.10;0.80;;;;;;;19.86;43.99;98337.81;5053867;28;20251;-62
2021/10/01 12:54:51;;;;;;;1.80;0.90;;;;;;;19.95;45.02;98333.34;5054049;28;20226;-62
2021/10/01 12:57:20;;;;;;;1.37;0.80;;;;;;;20.05;44.71;98342.94;5061185;28;20216;-61
2021/10/01 12:59:49;;;;;;;0.80;0.80;;;;;;;20.06;44.99;98333.94;5064575;28;20216;-61
2021/10/01 13:02:18;;;;;;;1.20;0.93;;;;;;;20.13;43.67;98328.78;5061665;28;20243;-62
2021/10/01 13:04:52;;;;;;;1.90;0.90;;;;;;;20.05;42.59;98321.47;5060424;28;20223;-61
2021/10/01 13:07:24;;;;;;;1.37;0.93;;;;;;;20.12;41.51;98316.38;5061084;28;20211;-61
2021/10/01 13:09:50;;;;;;;1.27;0.90;;;;;;;20.20;41.07;98314.56;5063507;28;20226;-63
2021/10/01 13:12:37;;;;;;;1.43;0.83;;;;;;;20.24;41.10;98313.22;5060467;28;20215;-61